Time;durP1;ratioP1;P1;durP2;ratioP2;P2;SDS_P1;SDS_P2;PMS_P1;PMS_P2;Temp;Humidity;BMP_temperature;BMP_pressure;BME280_temperature;BME280_humidity;BME280_pressure;Samples;Min_cycle;Max_cycle;Signal;HPM_P1;HPM_P2
2024/04/07 00:00:51;;;;;;;40.75;9.38;;;25.10;99.90;;;;;;4998958;28;20699;-53
2024/04/07 00:03:17;;;;;;;33.28;8.82;;;25.10;99.90;;;;;;5011985;28;20049;-53
2024/04/07 00:05:46;;;;;;;36.13;8.68;;;25.10;99.90;;;;;;5015274;28;20037;-54
2024/04/07 00:08:12;;;;;;;35.88;8.90;;;25.10;99.90;;;;;;5012078;28;20034;-53
2024/04/07 00:10:38;;;;;;;27.30;8.85;;;25.10;99.90;;;;;;5012221;28;20021;-52
2024/04/07 00:13:04;;;;;;;32.03;9.43;;;25.10;99.90;;;;;;5012156;28;20045;-53
2024/04/07 00:15:30;;;;;;;29.10;9.27;;;25.10;99.90;;;;;;5011368;28;20033;-52
2024/04/07 00:17:57;;;;;;;26.35;9.48;;;25.10;99.90;;;;;;5012426;28;20029;-53
2024/04/07 00:20:22;;;;;;;27.77;9.43;;;25.10;99.90;;;;;;5011860;28;20108;-52
2024/04/07 00:22:48;;;;;;;33.72;8.98;;;25.10;99.90;;;;;;5011976;28;20634;-53
2024/04/07 00:25:16;;;;;;;29.13;8.25;;;25.10;99.90;;;;;;5010294;28;20050;-54
2024/04/07 00:27:42;;;;;;;34.40;9.65;;;25.10;99.90;;;;;;5009332;28;20392;-53
2024/04/07 00:30:09;;;;;;;28.85;8.88;;;25.10;99.90;;;;;;5015026;28;20036;-54
2024/04/07 00:32:35;;;;;;;30.70;8.05;;;25.10;99.90;;;;;;5026282;28;20033;-54
2024/04/07 00:35:00;;;;;;;36.30;9.52;;;25.10;99.90;;;;;;5011898;28;20379;-54
2024/04/07 00:37:28;;;;;;;27.05;8.88;;;25.10;99.90;;;;;;5011778;28;20060;-54
2024/04/07 00:39:56;;;;;;;32.63;8.13;;;25.10;99.90;;;;;;5010906;28;20036;-55
2024/04/07 00:42:22;;;;;;;28.95;8.43;;;25.10;99.90;;;;;;5011705;28;20026;-54
2024/04/07 00:44:48;;;;;;;22.92;8.35;;;25.00;99.90;;;;;;5012104;28;20529;-55
2024/04/07 00:47:14;;;;;;;34.70;8.30;;;25.10;99.90;;;;;;5026810;28;20052;-54
2024/04/07 00:49:43;;;;;;;30.48;7.90;;;25.00;99.90;;;;;;5031383;28;20025;-54
2024/04/07 00:52:10;;;;;;;24.00;7.68;;;25.10;99.90;;;;;;5023588;28;20029;-54
2024/04/07 00:54:37;;;;;;;31.17;8.73;;;25.10;99.90;;;;;;5021376;28;20117;-54
2024/04/07 00:57:04;;;;;;;35.92;8.45;;;25.10;99.90;;;;;;5034810;28;20517;-54
2024/04/07 00:59:30;;;;;;;30.08;8.57;;;25.00;99.90;;;;;;5012386;28;20029;-54
2024/04/07 01:01:56;;;;;;;31.98;8.88;;;25.00;99.90;;;;;;5038557;22;20406;-46
2024/04/07 01:04:21;;;;;;;26.88;8.75;;;25.00;99.90;;;;;;5030995;28;20489;-46
2024/04/07 01:06:48;;;;;;;33.83;8.85;;;25.00;99.90;;;;;;5031232;28;20041;-46
2024/04/07 01:09:16;;;;;;;32.28;8.02;;;25.00;99.90;;;;;;5030564;28;20026;-46
2024/04/07 01:11:42;;;;;;;32.97;8.82;;;25.00;99.90;;;;;;5031191;28;20112;-47
2024/04/07 01:14:08;;;;;;;24.23;8.07;;;25.00;99.90;;;;;;5032313;28;20045;-46
2024/04/07 01:16:33;;;;;;;27.00;9.18;;;25.00;99.90;;;;;;5032104;28;20037;-46
2024/04/07 01:18:59;;;;;;;28.70;7.32;;;25.00;99.90;;;;;;5031623;28;20025;-46
2024/04/07 01:21:25;;;;;;;32.28;9.75;;;25.00;99.90;;;;;;5032210;28;20068;-46
2024/04/07 01:23:51;;;;;;;27.02;6.80;;;25.00;99.90;;;;;;5032215;28;20380;-46
2024/04/07 01:26:16;;;;;;;28.50;7.75;;;25.00;99.90;;;;;;5030655;28;20096;-47
2024/04/07 01:28:42;;;;;;;27.60;8.65;;;25.00;99.90;;;;;;5032167;28;20053;-47
2024/04/07 01:31:08;;;;;;;24.42;8.07;;;25.00;99.90;;;;;;5032078;28;20043;-47
2024/04/07 01:33:34;;;;;;;26.42;6.35;;;25.00;99.90;;;;;;5032149;28;20017;-47
2024/04/07 01:36:00;;;;;;;26.38;8.00;;;24.90;99.90;;;;;;5032247;28;20025;-46
2024/04/07 01:38:25;;;;;;;26.67;8.20;;;25.00;99.90;;;;;;5031906;28;20086;-46
2024/04/07 01:40:51;;;;;;;29.98;7.28;;;24.90;99.90;;;;;;5031553;28;20026;-47
2024/04/07 01:43:17;;;;;;;24.45;8.13;;;24.90;99.90;;;;;;5031950;28;20030;-47
2024/04/07 01:45:43;;;;;;;21.52;7.43;;;24.90;99.90;;;;;;5031832;28;20112;-46
2024/04/07 01:48:11;;;;;;;25.83;6.72;;;24.90;99.90;;;;;;5031791;28;20025;-47
2024/04/07 01:50:37;;;;;;;30.45;7.07;;;24.90;99.90;;;;;;5031942;28;20100;-47
2024/04/07 01:53:03;;;;;;;25.75;6.70;;;24.90;99.90;;;;;;5032147;28;20436;-46
2024/04/07 01:55:29;;;;;;;29.38;7.65;;;24.90;99.90;;;;;;5031870;28;20025;-47
2024/04/07 01:57:55;;;;;;;33.22;8.55;;;24.90;99.90;;;;;;5031923;28;20503;-46
2024/04/07 02:02:50;;;;;;;24.65;7.68;;;24.90;99.90;;;;;;5028637;28;20064;-52
2024/04/07 02:05:16;;;;;;;26.77;8.38;;;24.90;99.90;;;;;;5034167;28;20030;-52
2024/04/07 02:07:42;;;;;;;24.02;7.80;;;24.80;99.90;;;;;;5035415;28;20029;-52
2024/04/07 02:10:09;;;;;;;28.02;8.57;;;24.80;99.90;;;;;;5034701;28;20021;-52
2024/04/07 02:12:35;;;;;;;28.67;8.80;;;24.80;99.90;;;;;;5032508;28;20021;-52
2024/04/07 02:15:01;;;;;;;29.85;6.80;;;24.80;99.90;;;;;;5035349;28;20029;-52
2024/04/07 02:17:27;;;;;;;26.63;7.88;;;24.80;99.90;;;;;;5033943;28;20363;-52
2024/04/07 02:19:54;;;;;;;32.67;7.93;;;24.80;99.90;;;;;;5035273;28;20031;-53
2024/04/07 02:22:21;;;;;;;27.70;6.97;;;24.80;99.90;;;;;;5033782;28;20370;-52
2024/04/07 02:24:47;;;;;;;29.17;7.75;;;24.80;99.90;;;;;;5035058;28;20029;-51
2024/04/07 02:27:13;;;;;;;26.25;6.97;;;24.80;99.90;;;;;;5034960;28;20030;-52
2024/04/07 02:29:39;;;;;;;28.35;7.80;;;24.80;99.90;;;;;;5034967;28;20021;-52
2024/04/07 02:32:06;;;;;;;29.83;7.57;;;24.80;99.90;;;;;;5035022;28;20055;-52
2024/04/07 02:34:31;;;;;;;18.80;5.70;;;24.80;99.90;;;;;;5035240;28;20074;-51
2024/04/07 02:36:57;;;;;;;28.67;7.25;;;24.70;99.90;;;;;;5034823;28;20033;-52
2024/04/07 02:39:23;;;;;;;28.05;7.40;;;24.70;99.90;;;;;;5034774;28;20462;-51
2024/04/07 02:41:49;;;;;;;28.10;8.38;;;24.70;99.90;;;;;;5033549;28;20401;-52
2024/04/07 02:44:28;;;;;;;26.13;7.95;;;24.70;99.90;;;;;;5034877;28;20025;-52
2024/04/07 02:49:38;;;;;;;26.70;8.45;;;24.70;99.90;;;;;;5034733;28;20090;-52
2024/04/07 02:52:04;;;;;;;32.08;8.32;;;24.70;99.90;;;;;;5033615;28;20108;-52
2024/04/07 02:54:30;;;;;;;34.63;8.68;;;24.70;99.90;;;;;;5034498;28;20035;-52
2024/04/07 02:56:55;;;;;;;35.83;8.27;;;24.70;99.90;;;;;;5034482;28;20465;-51
2024/04/07 02:59:21;;;;;;;29.30;7.70;;;24.70;99.90;;;;;;5034502;28;20033;-52
2024/04/07 03:01:47;;;;;;;25.20;6.15;;;24.70;99.90;;;;;;5034828;28;20125;-51
2024/04/07 03:04:13;;;;;;;27.83;7.68;;;24.60;99.90;;;;;;5034409;28;20478;-52
2024/04/07 03:06:39;;;;;;;26.58;8.02;;;24.60;99.90;;;;;;5034265;28;20112;-52
2024/04/07 03:09:05;;;;;;;25.98;8.10;;;24.60;99.90;;;;;;5034511;28;20105;-52
2024/04/07 03:11:31;;;;;;;34.33;7.13;;;24.60;99.90;;;;;;5034249;28;20048;-51
2024/04/07 03:13:56;;;;;;;31.23;7.57;;;24.70;99.90;;;;;;5034157;28;20025;-52
2024/04/07 03:16:22;;;;;;;28.30;8.32;;;24.60;99.90;;;;;;5033669;28;20072;-52
2024/04/07 03:18:48;;;;;;;23.70;7.07;;;24.60;99.90;;;;;;5034149;28;20032;-52
2024/04/07 03:21:14;;;;;;;31.23;8.82;;;24.60;99.90;;;;;;5034155;28;20381;-52
2024/04/07 03:23:39;;;;;;;32.17;6.20;;;24.60;99.90;;;;;;5034011;28;20026;-52
2024/04/07 03:26:05;;;;;;;26.58;7.13;;;24.60;99.90;;;;;;5034070;28;20033;-52
2024/04/07 03:28:31;;;;;;;28.08;8.32;;;24.60;99.90;;;;;;5034008;28;20038;-52
2024/04/07 03:30:57;;;;;;;21.73;7.53;;;24.60;99.90;;;;;;5033930;28;20063;-51
2024/04/07 03:33:23;;;;;;;29.98;7.63;;;24.60;99.90;;;;;;5033891;28;20021;-51
2024/04/07 03:35:48;;;;;;;29.10;8.57;;;24.60;99.90;;;;;;5033915;28;20026;-51
2024/04/07 03:38:14;;;;;;;24.20;7.13;;;24.50;99.90;;;;;;5033798;28;20032;-51
2024/04/07 03:40:40;;;;;;;32.40;8.00;;;24.50;99.90;;;;;;5033476;28;20054;-51
2024/04/07 03:43:07;;;;;;;23.48;6.93;;;24.50;99.90;;;;;;5033854;28;20025;-52
2024/04/07 03:45:33;;;;;;;30.33;7.93;;;24.50;99.90;;;;;;5032387;28;20018;-52
2024/04/07 03:47:59;;;;;;;22.27;7.05;;;24.50;99.90;;;;;;5033571;28;20144;-52
2024/04/07 03:50:25;;;;;;;24.05;6.97;;;24.50;99.90;;;;;;5032338;28;20049;-52
2024/04/07 03:52:51;;;;;;;38.03;7.80;;;24.50;99.90;;;;;;5033355;28;20033;-51
2024/04/07 03:55:17;;;;;;;25.10;7.82;;;24.50;99.90;;;;;;5032196;28;20025;-55
2024/04/07 03:57:42;;;;;;;30.35;7.70;;;24.50;99.90;;;;;;5033440;28;20552;-52
2024/04/07 04:00:08;;;;;;;25.13;6.22;;;24.50;99.90;;;;;;5032349;28;20025;-51
2024/04/07 04:02:34;;;;;;;29.73;7.90;;;24.50;99.90;;;;;;5033246;28;20081;-52
2024/04/07 04:05:02;;;;;;;28.63;7.15;;;24.50;99.90;;;;;;5033273;28;20056;-51
2024/04/07 04:07:29;;;;;;;24.80;7.40;;;24.50;99.90;;;;;;5033067;28;20116;-51
2024/04/07 04:09:58;;;;;;;26.08;6.80;;;24.50;99.90;;;;;;5033182;28;20048;-52
2024/04/07 04:12:25;;;;;;;27.27;7.28;;;24.40;99.90;;;;;;5033198;28;20102;-52
2024/04/07 04:14:52;;;;;;;27.15;6.28;;;24.50;99.90;;;;;;5027599;28;20401;-51
2024/04/07 04:17:18;;;;;;;25.92;6.32;;;24.40;99.90;;;;;;5014073;28;20072;-52
2024/04/07 04:19:44;;;;;;;31.48;7.22;;;24.40;99.90;;;;;;5029274;28;20021;-52
2024/04/07 04:22:10;;;;;;;22.45;7.28;;;24.40;99.90;;;;;;5032529;28;20029;-52
2024/04/07 04:24:36;;;;;;;32.58;7.25;;;24.40;99.90;;;;;;5031188;28;20505;-52
2024/04/07 04:27:03;;;;;;;31.25;8.40;;;24.40;99.90;;;;;;5030529;28;20042;-51
2024/04/07 04:29:29;;;;;;;31.92;6.47;;;24.40;99.90;;;;;;5032749;28;20088;-52
2024/04/07 04:31:56;;;;;;;31.30;6.83;;;24.40;99.90;;;;;;5032926;28;20052;-52
2024/04/07 04:34:22;;;;;;;22.92;6.82;;;24.40;99.90;;;;;;5032737;28;20025;-52
2024/04/07 04:36:49;;;;;;;31.10;7.20;;;24.40;99.90;;;;;;5032541;28;20064;-51
2024/04/07 04:39:15;;;;;;;25.50;6.25;;;24.30;99.90;;;;;;5032610;28;20392;-51
2024/04/07 04:41:45;;;;;;;30.23;7.82;;;24.30;99.90;;;;;;5032670;28;20021;-52
2024/04/07 04:44:12;;;;;;;25.67;7.28;;;24.30;99.90;;;;;;5032855;28;20024;-51
2024/04/07 04:46:41;;;;;;;23.88;6.68;;;24.40;99.90;;;;;;5032704;28;20132;-51
2024/04/07 04:49:08;;;;;;;30.30;6.35;;;24.30;99.90;;;;;;5032494;28;20024;-51
2024/04/07 04:51:34;;;;;;;30.35;7.25;;;24.30;99.90;;;;;;5032485;28;20044;-51
2024/04/07 04:54:01;;;;;;;26.50;6.78;;;24.30;99.90;;;;;;5032377;28;20037;-52
2024/04/07 04:56:26;;;;;;;26.58;6.00;;;24.30;99.90;;;;;;5032440;28;20101;-51
2024/04/07 04:58:53;;;;;;;28.98;6.82;;;24.30;99.90;;;;;;5032429;28;20133;-52
2024/04/07 05:01:19;;;;;;;28.38;7.38;;;24.30;99.90;;;;;;5025546;28;20038;-52
2024/04/07 05:03:45;;;;;;;26.25;6.63;;;24.20;99.90;;;;;;5011637;28;20092;-52
2024/04/07 05:06:16;;;;;;;26.45;5.75;;;24.30;99.90;;;;;;5011699;28;20113;-51
2024/04/07 05:08:43;;;;;;;32.38;7.50;;;24.30;99.90;;;;;;5010103;28;20037;-52
2024/04/07 05:11:10;;;;;;;22.40;7.03;;;24.30;99.90;;;;;;5011866;28;20022;-52
2024/04/07 05:13:37;;;;;;;30.05;7.03;;;24.30;99.90;;;;;;5012462;28;20033;-52
2024/04/07 05:16:03;;;;;;;22.02;6.18;;;24.20;99.90;;;;;;5012563;28;20049;-51
2024/04/07 05:18:30;;;;;;;17.63;5.78;;;24.20;99.90;;;;;;5012306;28;20454;-51
2024/04/07 05:20:56;;;;;;;27.50;7.63;;;24.20;99.90;;;;;;5012346;28;20113;-52
2024/04/07 05:23:23;;;;;;;26.55;6.95;;;24.20;99.90;;;;;;5027509;28;20057;-51
2024/04/07 05:25:49;;;;;;;25.10;6.82;;;24.20;99.90;;;;;;5012232;28;20022;-51
2024/04/07 05:28:14;;;;;;;24.77;5.72;;;24.20;99.90;;;;;;5012402;28;20026;-52
2024/04/07 05:30:40;;;;;;;27.88;7.50;;;24.20;99.90;;;;;;5012394;28;20057;-52
2024/04/07 05:33:06;;;;;;;19.27;6.32;;;24.20;99.90;;;;;;5012239;28;20129;-52
2024/04/07 05:35:33;;;;;;;21.80;6.32;;;24.20;99.90;;;;;;5012234;28;20029;-51
2024/04/07 05:37:59;;;;;;;21.67;5.97;;;24.20;99.90;;;;;;5012756;28;20053;-52
2024/04/07 05:40:25;;;;;;;28.23;6.55;;;24.20;99.90;;;;;;5016296;28;20030;-51
2024/04/07 05:42:51;;;;;;;20.30;5.57;;;24.20;99.90;;;;;;5016215;28;20020;-52
2024/04/07 05:45:17;;;;;;;25.65;5.57;;;24.20;99.90;;;;;;5016141;28;20041;-51
2024/04/07 05:47:51;;;;;;;20.88;5.55;;;24.10;99.90;;;;;;5016117;28;20073;-52
2024/04/07 05:50:17;;;;;;;28.60;5.90;;;24.20;99.90;;;;;;5016194;28;20018;-52
2024/04/07 05:52:43;;;;;;;24.77;5.70;;;24.20;99.90;;;;;;5016209;28;20121;-52
2024/04/07 05:55:09;;;;;;;31.08;5.95;;;24.20;99.90;;;;;;5015763;28;20064;-52
2024/04/07 05:57:38;;;;;;;21.15;5.22;;;24.20;99.90;;;;;;5016000;28;20088;-52
2024/04/07 06:00:08;;;;;;;26.52;5.97;;;24.10;99.90;;;;;;5015862;28;20092;-52
2024/04/07 06:02:37;;;;;;;28.13;6.70;;;24.10;99.90;;;;;;5015583;28;20046;-51
2024/04/07 06:05:03;;;;;;;17.55;5.45;;;24.10;99.90;;;;;;5015608;28;20040;-52
2024/04/07 06:07:29;;;;;;;22.13;5.90;;;24.10;99.90;;;;;;5015626;28;20030;-52
2024/04/07 06:09:55;;;;;;;22.33;6.30;;;24.10;99.90;;;;;;5015627;28;20390;-51
2024/04/07 06:12:22;;;;;;;28.00;6.45;;;24.10;99.90;;;;;;5015545;28;20033;-52
2024/04/07 06:14:48;;;;;;;24.80;6.90;;;24.10;99.90;;;;;;5015377;28;20127;-51
2024/04/07 06:17:16;;;;;;;24.38;6.18;;;24.10;99.90;;;;;;5014463;28;20029;-51
2024/04/07 06:19:41;;;;;;;26.02;6.93;;;24.00;99.90;;;;;;5015456;28;20022;-52
2024/04/07 06:22:07;;;;;;;23.58;6.18;;;24.00;99.90;;;;;;5015465;28;20041;-52
2024/04/07 06:24:33;;;;;;;26.90;6.28;;;24.10;99.90;;;;;;5015342;28;20030;-52
2024/04/07 06:26:59;;;;;;;22.27;6.53;;;24.00;99.90;;;;;;5015213;28;20026;-52
2024/04/07 06:29:24;;;;;;;21.77;5.93;;;24.10;99.90;;;;;;5015225;28;20080;-51
2024/04/07 06:31:50;;;;;;;22.67;6.13;;;24.00;99.90;;;;;;5030278;28;20025;-51
2024/04/07 06:34:16;;;;;;;21.70;6.25;;;24.00;99.90;;;;;;5014017;28;20471;-51
2024/04/07 06:36:42;;;;;;;25.90;6.82;;;24.00;99.90;;;;;;5015131;28;20030;-51
2024/04/07 06:39:08;;;;;;;17.52;5.97;;;24.00;99.90;;;;;;5015227;28;20026;-51
2024/04/07 06:41:34;;;;;;;21.00;5.53;;;24.00;99.90;;;;;;5015143;28;20022;-51
2024/04/07 06:44:01;;;;;;;22.67;6.18;;;24.00;99.90;;;;;;5015000;28;20032;-50
2024/04/07 06:46:27;;;;;;;17.95;4.82;;;24.00;99.90;;;;;;5015029;28;20029;-51
2024/04/07 06:48:54;;;;;;;26.58;6.63;;;24.00;99.90;;;;;;5014921;28;20026;-51
2024/04/07 06:51:20;;;;;;;22.15;4.90;;;24.00;99.90;;;;;;5013993;28;20421;-51
2024/04/07 06:53:45;;;;;;;26.10;5.97;;;24.00;99.90;;;;;;5014869;28;20108;-51
2024/04/07 06:56:11;;;;;;;21.27;7.13;;;24.00;99.90;;;;;;5013377;28;20026;-51
2024/04/07 06:58:37;;;;;;;32.33;10.60;;;24.00;99.90;;;;;;5014576;28;20026;-51
2024/04/07 07:01:03;;;;;;;24.60;8.27;;;24.00;99.90;;;;;;5014495;28;20058;-51
2024/04/07 07:03:29;;;;;;;34.78;12.43;;;24.00;99.90;;;;;;5014504;28;20022;-51
2024/04/07 07:05:55;;;;;;;27.35;9.13;;;24.00;99.90;;;;;;5013135;28;20042;-54
2024/04/07 07:08:21;;;;;;;31.98;8.07;;;24.00;99.90;;;;;;5013238;28;20377;-51
2024/04/07 07:11:00;;;;;;;32.35;8.15;;;24.00;99.90;;;;;;5014606;28;20026;-51
2024/04/07 07:13:29;;;;;;;29.75;8.40;;;24.00;99.90;;;;;;5014374;28;20026;-51
2024/04/07 07:15:56;;;;;;;30.67;8.40;;;24.00;99.90;;;;;;5014174;28;20109;-51
2024/04/07 07:18:22;;;;;;;29.90;8.88;;;23.90;99.90;;;;;;5014468;28;20034;-51
2024/04/07 07:20:48;;;;;;;23.83;6.90;;;24.00;99.90;;;;;;5014633;28;20109;-51
2024/04/07 07:23:15;;;;;;;24.70;8.18;;;24.00;99.90;;;;;;5014170;28;20033;-51
2024/04/07 07:25:42;;;;;;;25.70;7.55;;;24.00;99.90;;;;;;5014235;28;20038;-52
2024/04/07 07:28:08;;;;;;;18.10;6.32;;;24.00;99.90;;;;;;5014067;28;20096;-52
2024/04/07 07:30:35;;;;;;;23.60;7.25;;;24.00;99.90;;;;;;5014384;28;20449;-52
2024/04/07 07:33:03;;;;;;;26.15;9.45;;;23.90;99.90;;;;;;5014460;28;20030;-51
2024/04/07 07:35:29;;;;;;;30.85;11.98;;;24.00;99.90;;;;;;5014888;28;20126;-52
2024/04/07 07:37:55;;;;;;;31.02;9.90;;;24.00;99.90;;;;;;5023319;28;20029;-52
2024/04/07 07:40:22;;;;;;;26.33;9.77;;;24.00;99.90;;;;;;5030323;28;20022;-52
2024/04/07 07:42:48;;;;;;;23.73;8.93;;;24.00;99.90;;;;;;5033801;28;20025;-54
2024/04/07 07:45:16;;;;;;;25.38;8.65;;;24.00;99.90;;;;;;5033506;28;20018;-51
2024/04/07 07:47:42;;;;;;;28.90;8.63;;;24.00;99.90;;;;;;5033209;28;20532;-50
2024/04/07 07:50:08;;;;;;;24.77;8.38;;;24.00;99.90;;;;;;5033359;28;20025;-52
2024/04/07 07:52:34;;;;;;;23.17;8.32;;;24.00;99.90;;;;;;5032588;28;20511;-52
2024/04/07 07:54:59;;;;;;;22.42;6.43;;;24.00;99.90;;;;;;5032315;28;20095;-52
2024/04/07 07:57:25;;;;;;;23.42;7.57;;;24.00;99.90;;;;;;5032685;28;20100;-51
2024/04/07 07:59:51;;;;;;;28.80;8.48;;;24.00;99.90;;;;;;5032970;28;20033;-52
2024/04/07 08:02:17;;;;;;;27.48;7.47;;;24.00;99.90;;;;;;5033223;28;20451;-51
2024/04/07 08:04:43;;;;;;;27.13;8.43;;;24.00;99.90;;;;;;5033385;28;20033;-51
2024/04/07 08:07:09;;;;;;;23.88;7.45;;;24.00;99.90;;;;;;5033201;28;20039;-52
2024/04/07 08:09:35;;;;;;;23.63;7.38;;;24.00;99.90;;;;;;5033268;28;20104;-51
2024/04/07 08:12:00;;;;;;;24.27;8.60;;;24.00;99.90;;;;;;5033171;28;20470;-51
2024/04/07 08:14:26;;;;;;;24.15;8.02;;;24.00;99.90;;;;;;5033100;28;20108;-52
2024/04/07 08:16:52;;;;;;;21.15;7.10;;;24.00;99.90;;;;;;5033258;28;20064;-51
2024/04/07 08:19:18;;;;;;;31.77;8.32;;;24.00;99.90;;;;;;5033011;28;20151;-52
2024/04/07 08:21:44;;;;;;;24.50;7.43;;;24.00;99.90;;;;;;5032871;28;20439;-51
2024/04/07 08:24:10;;;;;;;32.97;8.65;;;24.00;99.90;;;;;;5032908;28;20029;-51
2024/04/07 08:26:36;;;;;;;21.90;7.70;;;24.00;99.90;;;;;;5032826;28;20044;-51
2024/04/07 08:29:02;;;;;;;30.95;8.15;;;24.00;99.90;;;;;;5032812;28;20026;-51
2024/04/07 08:31:28;;;;;;;29.13;8.00;;;24.00;99.90;;;;;;5031444;28;20434;-51
2024/04/07 08:33:54;;;;;;;25.08;7.80;;;24.00;99.90;;;;;;5032835;28;20022;-50
2024/04/07 08:36:19;;;;;;;26.42;8.40;;;24.00;99.90;;;;;;5032975;28;20029;-51
2024/04/07 08:38:45;;;;;;;30.02;9.43;;;24.10;99.90;;;;;;5032657;28;20072;-50
2024/04/07 08:41:11;;;;;;;30.67;7.60;;;24.00;99.90;;;;;;5032571;28;20097;-51
2024/04/07 08:43:38;;;;;;;27.42;7.75;;;24.00;99.90;;;;;;5032500;28;20037;-51
2024/04/07 08:46:14;;;;;;;32.83;9.45;;;24.00;99.90;;;;;;5031136;28;20065;-52
2024/04/07 08:48:50;;;;;;;28.55;8.55;;;24.10;99.90;;;;;;5032433;28;20022;-51
2024/04/07 08:51:17;;;;;;;38.22;9.05;;;24.10;99.90;;;;;;5032341;28;20087;-51
2024/04/07 08:53:43;;;;;;;39.38;9.10;;;24.10;99.90;;;;;;5032270;28;20109;-51
2024/04/07 08:56:13;;;;;;;38.63;8.82;;;24.10;99.90;;;;;;5031015;28;20026;-51
2024/04/07 08:58:42;;;;;;;35.15;8.45;;;24.10;99.90;;;;;;5031016;28;20025;-51
2024/04/07 09:01:15;;;;;;;40.03;7.93;;;24.10;99.90;;;;;;5032130;28;20462;-52
2024/04/07 09:03:42;;;;;;;37.72;8.38;;;24.10;99.90;;;;;;5032236;28;20064;-52
2024/04/07 09:06:08;;;;;;;25.73;7.43;;;24.10;99.90;;;;;;5032273;28;20048;-52
2024/04/07 09:08:34;;;;;;;35.80;8.75;;;24.10;99.90;;;;;;5032184;28;20040;-52
2024/04/07 09:11:00;;;;;;;34.25;8.88;;;24.10;99.90;;;;;;5032189;28;20036;-52
2024/04/07 09:13:25;;;;;;;31.92;8.02;;;24.10;99.90;;;;;;5031965;28;20034;-52
2024/04/07 09:15:52;;;;;;;27.88;7.50;;;24.10;99.90;;;;;;5032244;28;20021;-52
2024/04/07 09:18:20;;;;;;;33.65;8.90;;;24.10;99.90;;;;;;5032036;28;20021;-52
2024/04/07 09:20:47;;;;;;;28.00;7.40;;;24.20;99.90;;;;;;5030735;28;20580;-51
2024/04/07 09:23:13;;;;;;;32.33;8.52;;;24.20;99.90;;;;;;5032027;28;20036;-52
2024/04/07 09:25:39;;;;;;;29.70;8.40;;;24.20;99.90;;;;;;5031990;28;20024;-52
2024/04/07 09:28:05;;;;;;;30.55;7.00;;;24.20;99.90;;;;;;5032009;28;20401;-52
2024/04/07 09:30:31;;;;;;;31.25;7.20;;;24.20;99.90;;;;;;5031980;28;20033;-52
2024/04/07 09:32:57;;;;;;;38.83;8.82;;;24.20;99.90;;;;;;5032180;28;20108;-52
2024/04/07 09:35:24;;;;;;;30.13;8.55;;;24.20;99.90;;;;;;5030949;28;20052;-52
2024/04/07 09:37:50;;;;;;;28.05;8.18;;;24.20;99.90;;;;;;5031838;28;20071;-51
2024/04/07 09:40:16;;;;;;;32.40;7.85;;;24.20;99.90;;;;;;5030567;28;20424;-51
2024/04/07 09:42:44;;;;;;;30.63;7.80;;;24.20;99.90;;;;;;5031953;28;20076;-52
2024/04/07 09:45:10;;;;;;;31.75;7.57;;;24.20;99.90;;;;;;5031897;28;20420;-52
2024/04/07 09:47:44;;;;;;;39.08;8.82;;;24.20;99.90;;;;;;5031798;28;20367;-52
2024/04/07 09:50:26;;;;;;;37.55;8.30;;;24.20;99.90;;;;;;5031797;28;20378;-52
2024/04/07 09:52:59;;;;;;;31.67;8.20;;;24.20;99.90;;;;;;5031613;28;20108;-52
2024/04/07 09:55:31;;;;;;;28.92;7.25;;;24.20;99.90;;;;;;5030663;28;20250;-52
2024/04/07 09:57:57;;;;;;;29.83;8.25;;;24.20;99.90;;;;;;5031883;28;20025;-51
2024/04/07 10:00:24;;;;;;;26.23;8.43;;;24.30;99.90;;;;;;5031933;28;20105;-51
2024/04/07 10:02:50;;;;;;;28.38;8.02;;;24.30;99.90;;;;;;5030209;28;20064;-51
2024/04/07 10:05:16;;;;;;;28.75;8.82;;;24.30;99.90;;;;;;5031682;28;20025;-51
2024/04/07 10:07:43;;;;;;;26.15;8.07;;;24.30;99.90;;;;;;5031434;28;20033;-52
2024/04/07 10:10:09;;;;;;;23.48;7.32;;;24.30;99.90;;;;;;5031599;28;20477;-51
2024/04/07 10:12:35;;;;;;;23.02;8.02;;;24.30;99.90;;;;;;5031413;28;20048;-52
2024/04/07 10:15:01;;;;;;;28.25;7.30;;;24.30;99.90;;;;;;5031580;28;20021;-52
2024/04/07 10:17:31;;;;;;;29.77;7.47;;;24.30;99.90;;;;;;5031834;28;20026;-54
2024/04/07 10:19:58;;;;;;;32.75;8.10;;;24.40;99.90;;;;;;5031776;28;20017;-52
2024/04/07 10:22:26;;;;;;;50.70;8.70;;;24.30;99.90;;;;;;5031657;28;20493;-52
2024/04/07 10:24:53;;;;;;;31.98;8.45;;;24.40;99.90;;;;;;5031540;28;20040;-50
2024/04/07 10:27:26;;;;;;;40.60;8.50;;;24.40;99.90;;;;;;5045390;28;20044;-52
2024/04/07 10:29:56;;;;;;;33.92;7.93;;;24.40;99.90;;;;;;5045411;28;20017;-52
2024/04/07 10:32:36;;;;;;;71.07;11.52;;;24.40;99.90;;;;;;5049521;28;20036;-52
2024/04/07 10:35:11;;;;;;;58.30;12.45;;;24.40;99.90;;;;;;5054909;28;20518;-53
2024/04/07 10:37:46;;;;;;;58.25;11.85;;;24.40;99.90;;;;;;5054881;28;20028;-53
2024/04/07 10:40:16;;;;;;;58.92;13.95;;;24.40;99.90;;;;;;5054805;28;20473;-53
2024/04/07 10:42:42;;;;;;;66.55;10.10;;;24.40;99.90;;;;;;5039066;28;20172;-54
2024/04/07 10:45:09;;;;;;;71.82;11.80;;;24.40;99.90;;;;;;5034785;28;20133;-56
2024/04/07 10:47:35;;;;;;;57.38;11.40;;;24.40;99.90;;;;;;5034194;28;20535;-54
2024/04/07 10:50:01;;;;;;;62.95;11.98;;;24.40;99.90;;;;;;5034367;28;20025;-55
2024/04/07 10:52:29;;;;;;;61.22;12.63;;;24.40;99.90;;;;;;5032842;28;20021;-55
2024/04/07 10:54:55;;;;;;;;;;;24.40;99.90;;;;;;5034510;28;20013;-53
2024/04/07 10:57:21;;;;;;;67.85;10.73;;;24.40;99.90;;;;;;5034505;28;19909;-51
2024/04/07 10:59:47;;;;;;;54.53;10.45;;;24.50;99.90;;;;;;5034157;28;20414;-56
2024/04/07 11:02:14;;;;;;;54.67;10.57;;;24.50;99.90;;;;;;5034398;28;20132;-55
2024/04/07 11:04:41;;;;;;;64.33;12.07;;;24.40;99.90;;;;;;5034370;28;20460;-55
2024/04/07 11:07:07;;;;;;;53.78;10.50;;;24.40;99.90;;;;;;5034403;28;20036;-55
2024/04/07 11:09:33;;;;;;;54.28;10.07;;;24.50;99.90;;;;;;5034303;28;20440;-56
2024/04/07 11:12:00;;;;;;;42.55;10.82;;;24.50;99.90;;;;;;5016930;28;20079;-54
2024/04/07 11:14:27;;;;;;;52.22;11.70;;;24.40;99.90;;;;;;5034288;28;20032;-55
2024/04/07 11:17:00;;;;;;;58.83;11.73;;;24.50;99.90;;;;;;5034385;28;20029;-55
2024/04/07 11:19:26;;;;;;;48.75;10.35;;;24.50;99.90;;;;;;5034283;28;20026;-52
2024/04/07 11:21:53;;;;;;;52.38;11.88;;;24.50;99.90;;;;;;5034197;28;20025;-52
2024/04/07 11:24:19;;;;;;;46.63;11.60;;;24.50;99.90;;;;;;5033444;28;20469;-51
2024/04/07 11:26:47;;;;;;;69.55;12.98;;;24.50;99.90;;;;;;5033443;28;20037;-51
2024/04/07 11:29:14;;;;;;;49.00;11.75;;;24.50;99.90;;;;;;5032037;28;20045;-52
2024/04/07 11:31:40;;;;;;;50.90;11.32;;;24.50;99.90;;;;;;5032679;28;20474;-50
2024/04/07 11:34:06;;;;;;;50.60;12.27;;;24.50;99.90;;;;;;5031998;28;20029;-53
2024/04/07 11:36:32;;;;;;;50.85;11.48;;;24.50;99.90;;;;;;5033410;28;20034;-52
2024/04/07 11:38:58;;;;;;;49.15;11.98;;;24.50;99.90;;;;;;5033666;28;20021;-52
2024/04/07 11:41:24;;;;;;;59.33;10.98;;;24.50;99.90;;;;;;5032460;28;20040;-51
2024/04/07 11:43:50;;;;;;;55.25;11.82;;;24.50;99.90;;;;;;5033690;28;20022;-51
2024/04/07 11:46:17;;;;;;;65.70;12.95;;;24.50;99.90;;;;;;5033569;28;20021;-51
2024/04/07 11:48:42;;;;;;;82.82;15.43;;;24.50;99.90;;;;;;5033617;28;20026;-50
2024/04/07 11:51:09;;;;;;;83.40;18.42;;;24.60;99.90;;;;;;5032188;28;20067;-50
2024/04/07 11:53:36;;;;;;;65.90;18.17;;;24.60;99.90;;;;;;5033037;28;20026;-49
2024/04/07 11:56:03;;;;;;;82.78;17.90;;;24.60;99.90;;;;;;5032779;28;20390;-50
2024/04/07 11:58:29;;;;;;;61.97;14.10;;;24.60;99.90;;;;;;5033068;28;20036;-49
2024/04/07 12:00:56;;;;;;;75.72;13.30;;;24.60;99.90;;;;;;5033170;28;20071;-49
2024/04/07 12:03:22;;;;;;;70.80;19.57;;;24.60;99.90;;;;;;5033241;28;20449;-49
2024/04/07 12:05:48;;;;;;;81.28;25.58;;;24.60;99.90;;;;;;5033223;28;20022;-49
2024/04/07 12:08:14;;;;;;;67.90;20.02;;;24.60;99.90;;;;;;5032950;28;20024;-50
2024/04/07 12:10:40;;;;;;;55.10;15.98;;;24.60;99.90;;;;;;5032877;28;20026;-51
2024/04/07 12:13:06;;;;;;;60.20;16.38;;;24.60;99.90;;;;;;5031956;28;20521;-50
2024/04/07 12:15:32;;;;;;;63.05;15.50;;;24.60;99.90;;;;;;5032719;28;20034;-50
2024/04/07 12:17:58;;;;;;;61.58;14.43;;;24.60;99.90;;;;;;5032606;28;20029;-50
2024/04/07 12:20:24;;;;;;;62.23;12.20;;;24.60;99.90;;;;;;5030051;28;20482;-49
2024/04/07 12:22:50;;;;;;;67.82;21.85;;;24.60;99.90;;;;;;5030513;28;20297;-51
2024/04/07 12:25:16;;;;;;;55.03;19.58;;;24.60;99.90;;;;;;5032821;28;20510;-50
2024/04/07 12:27:42;;;;;;;64.32;15.38;;;24.60;99.90;;;;;;5032497;28;20120;-49
2024/04/07 12:30:08;;;;;;;60.90;12.52;;;24.60;99.90;;;;;;5032105;28;20030;-50
2024/04/07 12:32:34;;;;;;;74.97;16.65;;;24.50;99.90;;;;;;5032571;28;20032;-50
2024/04/07 12:35:00;;;;;;;76.55;17.98;;;24.50;99.90;;;;;;5032500;28;20381;-50
2024/04/07 12:37:25;;;;;;;64.63;13.75;;;24.50;99.90;;;;;;5031800;28;20025;-49